Time;durP1;ratioP1;P1;durP2;ratioP2;P2;SDS_P1;SDS_P2;PMS_P1;PMS_P2;Temp;Humidity;BMP_temperature;BMP_pressure;BME280_temperature;BME280_humidity;BME280_pressure;Samples;Min_cycle;Max_cycle;Signal;HPM_P1;HPM_P2
2023/01/25 00:02:16;;;;;;;1.42;1.33;;;;;;;1.08;84.00;101183.06;5094154;28;20422;-67
2023/01/25 00:04:45;;;;;;;3.45;1.90;;;;;;;1.05;84.35;101177.88;5095178;28;20036;-67
2023/01/25 00:07:14;;;;;;;2.63;2.40;;;;;;;1.04;84.60;101181.16;5095628;28;20039;-67
2023/01/25 00:09:43;;;;;;;1.47;1.37;;;;;;;1.05;84.34;101180.41;5094439;28;20085;-68
2023/01/25 00:12:12;;;;;;;2.07;1.43;;;;;;;1.08;84.22;101182.22;5092285;28;20048;-68
2023/01/25 00:14:41;;;;;;;0.70;0.70;;;;;;;1.08;84.22;101177.19;5092535;28;20093;-68
2023/01/25 00:17:11;;;;;;;0.60;0.60;;;;;;;1.07;84.70;101173.81;5093473;28;20064;-67
2023/01/25 00:19:39;;;;;;;2.65;2.50;;;;;;;1.07;84.70;101183.00;5095613;28;20040;-67
2023/01/25 00:22:08;;;;;;;1.27;1.17;;;;;;;1.05;84.81;101180.41;5093117;28;20036;-67
2023/01/25 00:24:37;;;;;;;1.50;1.40;;;;;;;1.03;84.73;101181.91;5094426;28;20040;-67
2023/01/25 00:27:06;;;;;;;2.93;2.60;;;;;;;1.04;84.44;101176.13;5094772;28;20517;-67
2023/01/25 00:29:35;;;;;;;4.27;1.67;;;;;;;1.02;84.88;101177.69;5095248;28;20042;-67
2023/01/25 00:32:54;;;;;;;2.65;2.45;;;;;;;1.01;85.01;101173.41;5095707;28;20346;-67
2023/01/25 00:35:23;;;;;;;;;;;;;;;1.00;84.81;101169.19;5086902;28;20044;-67
2023/01/25 00:37:53;;;;;;;1.65;1.55;;;;;;;0.99;84.55;101169.94;5095099;28;20011;-67
2023/01/25 00:40:22;;;;;;;1.70;1.60;;;;;;;0.97;84.87;101176.53;5093593;28;20043;-67
2023/01/25 00:42:51;;;;;;;2.22;2.03;;;;;;;0.97;84.85;101179.06;5093969;28;20044;-67
2023/01/25 00:45:20;;;;;;;11.50;3.80;;;;;;;0.96;84.37;101172.28;5094432;28;20037;-67
2023/01/25 00:47:54;;;;;;;1.83;1.73;;;;;;;0.97;84.91;101175.66;5094536;28;20494;-67
2023/01/25 00:50:23;;;;;;;1.20;1.15;;;;;;;0.99;84.72;101171.59;5094926;28;20048;-67
2023/01/25 00:52:52;;;;;;;0.32;0.32;;;;;;;0.99;84.83;101171.59;5093086;28;20082;-66
2023/01/25 00:55:21;;;;;;;1.23;1.13;;;;;;;0.98;84.86;101174.91;5093097;28;20040;-67
2023/01/25 00:57:49;;;;;;;1.43;1.33;;;;;;;0.99;84.80;101176.63;5094654;28;20347;-67
2023/01/25 01:00:18;;;;;;;2.67;2.07;;;;;;;1.02;84.81;101182.72;5092949;28;20110;-69
2023/01/25 01:02:48;;;;;;;3.47;2.25;;;;;;;1.08;85.33;101175.53;5094010;28;20482;-67
2023/01/25 01:05:18;;;;;;;1.42;1.33;;;;;;;1.12;85.60;101164.03;5091839;28;20044;-67
2023/01/25 01:07:49;;;;;;;1.20;1.10;;;;;;;1.12;85.51;101164.91;5075212;28;20052;-66
2023/01/25 01:10:19;;;;;;;8.88;1.92;;;;;;;1.12;84.99;101159.88;5089255;28;20050;-66
2023/01/25 01:12:48;;;;;;;2.13;1.90;;;;;;;1.14;84.63;101165.88;5092163;28;20032;-67
2023/01/25 01:15:19;;;;;;;2.55;2.35;;;;;;;1.16;85.22;101161.78;5091945;28;20044;-67
2023/01/25 01:17:48;;;;;;;4.97;2.67;;;;;;;1.16;85.36;101161.78;5092760;28;20494;-66
2023/01/25 01:20:18;;;;;;;1.47;1.37;;;;;;;1.18;85.48;101165.25;5094239;28;20134;-66
2023/01/25 01:22:47;;;;;;;5.32;2.38;;;;;;;1.13;84.88;101163.22;5095131;28;20273;-66
2023/01/25 01:25:16;;;;;;;1.60;1.50;;;;;;;1.09;85.34;101154.66;5090584;28;20084;-66
2023/01/25 01:27:45;;;;;;;8.32;4.78;;;;;;;1.06;85.32;101151.94;5092018;28;20036;-67
2023/01/25 01:30:14;;;;;;;1.67;1.58;;;;;;;1.05;84.99;101155.25;5091870;28;20052;-67
2023/01/25 01:32:43;;;;;;;2.30;2.20;;;;;;;1.03;85.09;101159.28;5089294;28;20413;-66
2023/01/25 01:35:12;;;;;;;2.03;1.80;;;;;;;1.01;85.15;101155.81;5092387;28;20300;-66
2023/01/25 01:37:43;;;;;;;1.05;1.02;;;;;;;1.03;85.52;101148.41;5094882;28;20589;-66
2023/01/25 01:40:15;;;;;;;6.43;1.10;;;;;;;1.00;84.72;101149.09;5094268;28;20512;-66
2023/01/25 01:42:59;;;;;;;0.98;0.95;;;;;;;0.96;85.50;101147.13;5094559;28;20056;-66
2023/01/25 01:45:50;;;;;;;1.83;1.70;;;;;;;0.91;85.26;101137.59;5090453;28;20040;-66
2023/01/25 01:48:33;;;;;;;1.35;1.25;;;;;;;0.93;85.54;101136.03;5091780;28;20044;-66
2023/01/25 01:51:06;;;;;;;1.27;1.20;;;;;;;0.94;85.58;101143.66;5092544;28;20043;-66
2023/01/25 01:53:38;;;;;;;4.60;1.95;;;;;;;0.96;85.27;101151.31;5094008;28;20040;-66
2023/01/25 01:56:10;;;;;;;0.90;0.90;;;;;;;0.94;84.88;101146.19;5090884;28;20054;-66
2023/01/25 01:58:41;;;;;;;1.35;1.25;;;;;;;0.91;85.28;101148.50;5092227;28;20044;-66
2023/01/25 02:01:11;;;;;;;1.42;1.33;;;;;;;0.90;85.28;101146.78;5107323;28;20036;-66
2023/01/25 02:03:41;;;;;;;0.90;0.90;;;;;;;0.92;84.98;101150.25;5088560;28;20180;-68
2023/01/25 02:06:14;;;;;;;5.68;4.82;;;;;;;0.94;85.62;101153.72;5091789;28;20079;-66
2023/01/25 02:08:45;;;;;;;0.80;0.80;;;;;;;0.99;84.75;101156.50;5091351;28;20050;-66
2023/01/25 02:11:14;;;;;;;4.40;3.60;;;;;;;0.96;85.46;101147.13;5089936;28;20040;-66
2023/01/25 02:13:43;;;;;;;0.50;0.50;;;;;;;0.97;85.33;101146.38;5093448;28;20440;-66
2023/01/25 02:16:19;;;;;;;7.35;4.30;;;;;;;0.96;84.95;101147.13;5092765;28;20048;-66
2023/01/25 02:18:48;;;;;;;1.55;1.45;;;;;;;0.99;85.40;101152.34;5091139;28;20043;-66
2023/01/25 02:21:17;;;;;;;1.15;1.13;;;;;;;0.98;84.90;101150.63;5093213;28;20067;-66
2023/01/25 02:23:54;;;;;;;1.23;1.10;;;;;;;0.91;85.00;101153.53;5091873;28;20047;-66
2023/01/25 02:26:25;;;;;;;2.00;1.80;;;;;;;0.87;84.69;101150.72;5092756;28;20300;-65
2023/01/25 02:28:59;;;;;;;0.93;0.90;;;;;;;0.85;85.47;101149.78;5092556;28;20072;-65
2023/01/25 02:31:28;;;;;;;6.10;2.13;;;;;;;0.86;84.95;101149.88;5089992;28;20086;-66
2023/01/25 02:33:57;;;;;;;2.15;1.73;;;;;;;0.84;85.26;101141.38;5092205;28;20071;-65
2023/01/25 02:36:28;;;;;;;1.25;1.17;;;;;;;0.83;85.26;101149.69;5090898;28;20040;-65
2023/01/25 02:39:02;;;;;;;1.70;0.82;;;;;;;0.81;84.86;101140.31;5091977;28;20517;-65
2023/01/25 02:41:35;;;;;;;1.27;1.20;;;;;;;0.77;84.78;101146.78;5091259;28;20043;-66
2023/01/25 02:44:06;;;;;;;3.58;2.30;;;;;;;0.75;85.54;101135.78;5098314;28;20040;-66
2023/01/25 02:46:38;;;;;;;1.15;1.08;;;;;;;0.77;84.96;101141.75;5090453;28;20066;-65
2023/01/25 02:49:10;;;;;;;0.40;0.40;;;;;;;0.82;85.22;101142.03;5090598;28;20079;-66
2023/01/25 02:51:40;;;;;;;1.58;1.48;;;;;;;0.83;85.49;101134.63;5091836;28;20044;-66
2023/01/25 02:54:12;;;;;;;1.55;1.45;;;;;;;0.86;85.14;101128.91;5092698;28;20443;-66
2023/01/25 02:56:42;;;;;;;2.15;1.95;;;;;;;0.91;85.60;101128.41;5091819;28;20130;-66
2023/01/25 02:59:12;;;;;;;1.85;1.45;;;;;;;0.87;85.40;101121.47;5091395;28;20036;-65
2023/01/25 03:01:46;;;;;;;3.85;3.53;;;;;;;0.90;84.96;101119.13;5092911;28;20051;-67
2023/01/25 03:04:15;;;;;;;1.55;1.45;;;;;;;0.90;85.59;101111.59;5088471;28;20039;-66
2023/01/25 03:06:44;;;;;;;1.00;1.00;;;;;;;0.89;85.56;101107.34;5096319;28;20060;-66
2023/01/25 03:09:13;;;;;;;3.45;3.20;;;;;;;0.93;85.37;101111.78;5092929;28;20075;-67
2023/01/25 03:11:47;;;;;;;1.17;1.10;;;;;;;0.94;85.50;101103.47;5091834;28;20072;-70
2023/01/25 03:14:18;;;;;;;1.92;1.33;;;;;;;0.85;85.77;101082.81;5077148;28;20435;-67
2023/01/25 03:16:47;;;;;;;2.80;2.15;;;;;;;0.91;85.31;101098.25;5091380;28;20044;-66
2023/01/25 03:19:18;;;;;;;1.45;1.33;;;;;;;0.89;85.53;101089.75;5092287;28;20082;-67
2023/01/25 03:21:47;;;;;;;0.80;0.75;;;;;;;0.84;85.74;101088.59;5090362;28;20528;-66
2023/01/25 03:24:15;;;;;;;0.45;0.45;;;;;;;0.86;85.82;101088.72;5091757;28;20131;-66
2023/01/25 03:29:34;;;;;;;2.53;2.35;;;;;;;0.80;85.54;101074.13;5088499;28;20409;-67
2023/01/25 03:32:07;;;;;;;2.60;1.73;;;;;;;0.86;85.78;101084.56;5089458;28;20135;-69
2023/01/25 03:34:36;;;;;;;0.60;0.60;;;;;;;0.82;85.56;101077.59;5091108;28;20078;-67
2023/01/25 03:37:05;;;;;;;1.13;1.10;;;;;;;0.79;85.73;101082.44;5092044;28;20131;-65
2023/01/25 03:39:35;;;;;;;1.35;1.25;;;;;;;0.72;85.36;101066.91;5090023;28;20134;-69
2023/01/25 03:42:06;;;;;;;0.70;0.70;;;;;;;0.58;85.62;101051.84;5088752;28;20036;-67
2023/01/25 03:44:34;;;;;;;0.65;0.65;;;;;;;0.67;85.86;101081.72;5090328;28;20045;-68
2023/01/25 03:47:04;;;;;;;;;;;;;;;0.61;85.51;101072.16;5090734;28;20036;-67
2023/01/25 03:49:33;;;;;;;;;;;;;;;0.62;85.76;101078.03;5090904;28;19970;-68
2023/01/25 03:52:04;;;;;;;1.10;0.98;;;;;;;0.62;85.63;101073.88;5094075;28;20392;-66
2023/01/25 03:54:38;;;;;;;1.02;1.02;;;;;;;0.48;85.61;101053.75;5094199;28;20045;-67
2023/01/25 03:57:11;;;;;;;1.48;1.38;;;;;;;0.57;85.15;101079.41;5096046;28;20436;-68
2023/01/25 03:59:51;;;;;;;0.68;0.68;;;;;;;0.49;85.77;101055.44;5095927;28;20516;-68
2023/01/25 04:02:21;;;;;;;3.13;1.08;;;;;;;0.50;85.77;101057.22;5093710;28;20043;-68
2023/01/25 04:04:50;;;;;;;1.73;1.63;;;;;;;0.50;85.12;101070.63;5093651;28;20040;-66
2023/01/25 04:07:21;;;;;;;0.77;0.77;;;;;;;0.50;85.22;101058.09;5096748;28;20122;-66
2023/01/25 04:09:50;;;;;;;0.95;0.90;;;;;;;0.49;85.07;101065.50;5093219;28;20040;-66
2023/01/25 04:12:20;;;;;;;;;;;;;;;0.50;85.21;101069.75;5096793;28;20044;-68
2023/01/25 04:14:49;;;;;;;1.23;1.13;;;;;;;0.46;85.55;101065.31;5095446;28;19971;-66
2023/01/25 04:17:22;;;;;;;2.03;1.40;;;;;;;0.48;85.36;101073.84;5095013;28;20088;-67
2023/01/25 04:19:59;;;;;;;1.58;1.48;;;;;;;0.40;85.12;101075.00;5096919;28;20079;-67
2023/01/25 04:22:35;;;;;;;0.75;0.75;;;;;;;0.34;85.33;101074.59;5095265;28;20044;-67
2023/01/25 04:25:07;;;;;;;1.48;1.38;;;;;;;0.18;85.14;101061.88;5096136;28;20071;-67
2023/01/25 04:27:41;;;;;;;2.25;1.15;;;;;;;0.28;85.20;101086.78;5095420;28;20035;-67
2023/01/25 04:30:14;;;;;;;1.42;1.33;;;;;;;0.19;84.89;101073.66;5093788;28;20048;-67
2023/01/25 04:32:46;;;;;;;1.80;1.70;;;;;;;0.23;85.21;101095.66;5078307;28;20691;-66
2023/01/25 04:35:29;;;;;;;1.13;1.10;;;;;;;0.27;85.41;101082.53;5094768;28;20044;-67
2023/01/25 04:37:59;;;;;;;0.63;0.63;;;;;;;0.39;85.47;101093.31;5095498;28;20044;-69
2023/01/25 04:40:37;;;;;;;1.50;1.40;;;;;;;0.49;85.56;101085.59;5090695;28;20490;-68
2023/01/25 04:43:08;;;;;;;0.68;0.68;;;;;;;0.48;85.06;101087.22;5095350;28;20117;-67
2023/01/25 04:45:36;;;;;;;2.65;2.45;;;;;;;0.47;85.37;101087.16;5093308;28;20077;-66
2023/01/25 04:48:14;;;;;;;2.25;2.05;;;;;;;0.46;85.61;101091.28;5082194;28;20134;-68
2023/01/25 04:50:50;;;;;;;0.80;0.80;;;;;;;0.42;85.34;101084.34;5092301;28;20093;-67
2023/01/25 04:53:22;;;;;;;1.05;1.05;;;;;;;0.46;85.87;101095.44;5094682;28;20044;-67
2023/01/25 04:55:53;;;;;;;0.73;0.73;;;;;;;0.45;85.69;101094.59;5095914;28;20114;-66
2023/01/25 04:58:24;;;;;;;0.88;0.88;;;;;;;0.46;85.99;101101.34;5094880;28;20040;-68
2023/01/25 05:00:54;;;;;;;2.08;1.95;;;;;;;0.45;85.77;101093.72;5093893;28;20040;-66
2023/01/25 05:03:23;;;;;;;0.52;0.52;;;;;;;0.27;85.96;101059.94;5092349;28;20071;-68
2023/01/25 05:05:55;;;;;;;1.70;1.60;;;;;;;0.50;85.82;101097.38;5092858;28;20036;-68
2023/01/25 05:08:26;;;;;;;0.90;0.88;;;;;;;0.51;85.94;101091.56;5093774;28;20040;-68
2023/01/25 05:11:00;;;;;;;0.43;0.43;;;;;;;0.52;85.66;101090.81;5093847;28;20066;-67
2023/01/25 05:13:41;;;;;;;4.15;3.65;;;;;;;0.52;85.71;101090.81;5095289;28;20036;-67
2023/01/25 05:16:19;;;;;;;0.40;0.40;;;;;;;0.51;86.28;101086.56;5092793;28;20040;-68
2023/01/25 05:18:48;;;;;;;4.25;3.28;;;;;;;0.52;85.51;101090.81;5093774;28;20040;-67
2023/01/25 05:24:05;;;;;;;1.90;1.50;;;;;;;0.50;85.82;101098.25;5095108;28;20048;-68
2023/01/25 05:29:16;;;;;;;3.30;3.00;;;;;;;0.37;85.98;101099.91;5093922;28;20097;-67
2023/01/25 05:31:57;;;;;;;0.88;0.88;;;;;;;0.34;85.48;101094.69;5095015;28;20131;-67
2023/01/25 05:34:27;;;;;;;1.70;1.60;;;;;;;0.32;85.55;101102.13;5094185;28;20043;-67
2023/01/25 05:36:56;;;;;;;1.95;1.85;;;;;;;0.24;85.39;101092.41;5095258;28;20490;-67
2023/01/25 05:39:25;;;;;;;;;;;;;;;0.25;85.27;101094.13;5093914;28;20052;-67
2023/01/25 05:41:55;;;;;;;0.88;0.88;;;;;;;0.08;85.48;101090.53;5094640;28;19924;-68
2023/01/25 05:44:25;;;;;;;1.15;1.10;;;;;;;0.03;85.34;101086.00;5093953;28;20092;-67
2023/01/25 05:46:55;;;;;;;1.15;1.13;;;;;;;0.05;85.45;101094.53;5094841;28;20044;-67
2023/01/25 05:49:23;;;;;;;1.10;1.03;;;;;;;-0.04;85.30;101085.63;5093659;28;20432;-67
2023/01/25 05:51:53;;;;;;;9.70;2.60;;;;;;;-0.01;85.45;101090.84;5091662;28;20036;-68
2023/01/25 05:54:22;;;;;;;2.08;1.98;;;;;;;-0.07;85.25;101090.44;5092939;28;20537;-67
2023/01/25 05:57:00;;;;;;;2.70;2.50;;;;;;;-0.11;85.23;101082.63;5092144;28;20101;-68
2023/01/25 05:59:30;;;;;;;1.88;1.73;;;;;;;-0.11;85.52;101093.53;5090107;28;20039;-67
2023/01/25 06:02:00;;;;;;;0.88;0.85;;;;;;;-0.07;85.42;101095.44;5090480;28;20075;-70
2023/01/25 06:04:29;;;;;;;0.90;0.90;;;;;;;-0.08;85.25;101093.75;5091540;28;20442;-66
2023/01/25 06:06:58;;;;;;;1.92;1.83;;;;;;;-0.09;85.36;101097.00;5092469;28;20394;-67
2023/01/25 06:09:28;;;;;;;4.20;3.20;;;;;;;-0.11;85.02;101093.53;5093338;28;20048;-67
2023/01/25 06:11:57;;;;;;;1.93;1.83;;;;;;;-0.13;85.38;101095.06;5093047;28;20032;-67
2023/01/25 06:14:26;;;;;;;5.38;3.03;;;;;;;-0.17;85.49;101093.13;5092289;28;20288;-68
2023/01/25 06:16:56;;;;;;;1.50;0.97;;;;;;;-0.18;85.10;101101.44;5091786;28;20115;-66
2023/01/25 06:19:35;;;;;;;1.92;1.83;;;;;;;-0.22;85.61;101102.03;5091317;28;20394;-67
2023/01/25 06:22:18;;;;;;;2.67;2.47;;;;;;;-0.34;85.68;101087.81;5089220;28;20502;-68
2023/01/25 06:24:48;;;;;;;1.35;1.25;;;;;;;-0.26;85.83;101110.09;5092963;28;20068;-68
2023/01/25 06:27:16;;;;;;;2.55;2.35;;;;;;;-0.43;85.80;101075.53;5092676;28;20044;-67
2023/01/25 06:29:45;;;;;;;0.87;0.87;;;;;;;-0.29;85.45;101106.53;5094432;28;20042;-66
2023/01/25 06:32:15;;;;;;;0.80;0.80;;;;;;;-0.32;85.92;101107.22;5093689;28;20068;-67
2023/01/25 06:34:45;;;;;;;1.05;1.00;;;;;;;-0.33;85.62;101110.47;5093903;28;20089;-66
2023/01/25 06:37:21;;;;;;;1.92;1.80;;;;;;;-0.47;85.53;101101.19;5091151;28;20044;-68
2023/01/25 06:39:50;;;;;;;2.67;2.45;;;;;;;-0.51;85.53;101114.28;5093711;28;20044;-66
2023/01/25 06:42:19;;;;;;;2.90;2.20;;;;;;;-0.57;85.82;101118.88;5093577;28;20098;-67
2023/01/25 06:44:48;;;;;;;1.95;1.85;;;;;;;-0.51;85.67;101109.28;5090658;28;20036;-66
2023/01/25 06:47:18;;;;;;;6.40;3.57;;;;;;;-0.41;85.37;101111.63;5091642;28;20070;-66
2023/01/25 06:49:47;;;;;;;2.38;2.17;;;;;;;-0.42;85.73;101104.84;5092376;28;20342;-66
2023/01/25 06:52:15;;;;;;;3.08;2.83;;;;;;;-0.40;85.73;101105.81;5091952;28;20081;-67
2023/01/25 06:54:44;;;;;;;1.17;1.07;;;;;;;-0.30;85.88;101107.28;5092618;28;20028;-67
2023/01/25 06:57:13;;;;;;;0.50;0.50;;;;;;;-0.28;85.82;101104.13;5091047;28;20288;-67
2023/01/25 06:59:41;;;;;;;1.40;1.33;;;;;;;-0.01;86.12;101105.03;5092013;28;20032;-68
2023/01/25 07:02:15;;;;;;;0.97;0.93;;;;;;;0.40;86.00;101110.13;5088983;28;20379;-70
2023/01/25 07:04:45;;;;;;;2.20;2.08;;;;;;;0.72;85.73;101115.50;5093108;28;20070;-66
2023/01/25 07:07:14;;;;;;;0.95;0.93;;;;;;;0.70;85.75;101107.00;5093393;28;20055;-67
2023/01/25 07:09:42;;;;;;;1.63;1.02;;;;;;;0.70;85.46;101109.50;5093503;28;20126;-68
2023/01/25 07:12:11;;;;;;;0.95;0.93;;;;;;;0.74;85.54;101108.94;5091671;28;20068;-67
2023/01/25 07:14:40;;;;;;;1.52;1.13;;;;;;;0.65;84.78;101111.75;5085451;28;20048;-66
2023/01/25 07:17:09;;;;;;;;;;;;;;;0.60;85.35;101117.28;5091329;28;20051;-66
2023/01/25 07:19:38;;;;;;;0.70;0.70;;;;;;;0.64;84.92;101107.50;5089972;28;19919;-66
2023/01/25 07:22:08;;;;;;;2.83;2.63;;;;;;;0.64;85.02;101106.63;5088276;28;20044;-67
2023/01/25 07:24:37;;;;;;;0.85;0.85;;;;;;;0.72;84.66;101110.47;5078383;28;20048;-67
2023/01/25 07:27:06;;;;;;;4.07;2.63;;;;;;;0.80;85.30;101114.31;5093042;28;20067;-67
2023/01/25 07:29:34;;;;;;;2.03;1.87;;;;;;;0.97;85.55;101103.66;5097324;28;20082;-67
2023/01/25 07:32:05;;;;;;;2.20;2.00;;;;;;;1.15;84.85;101094.66;5097219;28;20044;-67
2023/01/25 07:34:34;;;;;;;2.70;2.50;;;;;;;1.32;85.38;101098.19;5097315;28;20044;-67
2023/01/25 07:37:03;;;;;;;2.58;1.90;;;;;;;1.41;84.35;101097.88;5097271;28;20098;-68
2023/01/25 07:39:33;;;;;;;2.33;2.20;;;;;;;1.49;84.26;101097.50;5095884;28;20051;-67
2023/01/25 07:42:02;;;;;;;5.13;2.30;;;;;;;1.64;84.78;101097.53;5085557;28;20038;-68
2023/01/25 07:44:32;;;;;;;1.70;1.60;;;;;;;1.76;84.30;101095.72;5096021;28;20063;-68
2023/01/25 07:47:12;;;;;;;1.45;1.35;;;;;;;1.86;84.25;101090.44;5094971;28;20044;-68
2023/01/25 07:49:40;;;;;;;2.10;1.95;;;;;;;1.88;83.79;101088.84;5094947;28;20040;-69
2023/01/25 07:52:10;;;;;;;6.40;3.03;;;;;;;2.01;84.33;101093.81;5096974;28;20393;-69
2023/01/25 07:54:40;;;;;;;2.85;2.65;;;;;;;2.06;83.54;101091.53;5094624;28;20033;-71
2023/01/25 07:57:09;;;;;;;2.88;2.50;;;;;;;2.12;83.91;101090.22;5092476;28;20051;-69
2023/01/25 07:59:38;;;;;;;2.33;2.13;;;;;;;2.12;83.86;101092.75;5096574;28;20056;-69
2023/01/25 08:02:10;;;;;;;1.58;1.48;;;;;;;2.17;83.64;101091.34;5091539;28;20056;-70
2023/01/25 08:04:41;;;;;;;0.93;0.93;;;;;;;2.23;83.20;101099.22;5094452;28;20464;-69
2023/01/25 08:07:10;;;;;;;0.60;0.60;;;;;;;2.13;82.57;101091.09;5093260;28;20060;-69
2023/01/25 08:09:40;;;;;;;2.90;2.10;;;;;;;2.07;82.86;101089.09;5095356;28;20081;-69
2023/01/25 08:12:09;;;;;;;0.82;0.82;;;;;;;2.14;82.77;101091.16;5095266;28;20048;-69
2023/01/25 08:14:38;;;;;;;0.90;0.90;;;;;;;2.27;82.27;101097.75;5093987;28;20040;-70
2023/01/25 08:17:06;;;;;;;1.87;1.70;;;;;;;2.42;83.18;101101.13;5093120;28;20040;-70
2023/01/25 08:19:35;;;;;;;1.20;1.13;;;;;;;2.55;83.18;101109.41;5095239;28;20055;-70
2023/01/25 08:22:07;;;;;;;2.85;2.65;;;;;;;2.71;82.39;101106.94;5094704;28;20110;-69
2023/01/25 08:24:35;;;;;;;1.83;1.73;;;;;;;2.77;81.95;101100.47;5089622;28;20118;-71
2023/01/25 08:27:05;;;;;;;2.72;2.55;;;;;;;2.71;82.28;101091.78;5089595;28;20064;-68
2023/01/25 08:29:34;;;;;;;6.05;3.72;;;;;;;2.65;82.07;101091.50;5092911;28;20409;-69
2023/01/25 08:32:05;;;;;;;2.53;2.33;;;;;;;2.64;81.89;101088.88;5089646;28;20035;-70
2023/01/25 08:34:33;;;;;;;2.50;2.38;;;;;;;2.62;82.26;101095.47;5089389;28;20036;-69
2023/01/25 08:37:02;;;;;;;2.10;1.93;;;;;;;2.61;81.95;101096.28;5092059;28;20046;-68
2023/01/25 08:39:31;;;;;;;6.47;4.77;;;;;;;2.59;81.43;101090.31;5093515;28;20096;-69
2023/01/25 08:42:00;;;;;;;5.13;4.63;;;;;;;2.60;81.53;101097.94;5096040;28;20361;-68
2023/01/25 08:44:30;;;;;;;2.92;2.70;;;;;;;2.64;82.11;101097.31;5094311;28;20042;-71
2023/01/25 08:46:59;;;;;;;3.58;2.85;;;;;;;2.81;82.37;101092.31;5089450;28;20393;-68
2023/01/25 08:49:29;;;;;;;3.47;3.05;;;;;;;2.94;81.47;101087.09;5094118;28;20064;-68
2023/01/25 08:51:58;;;;;;;4.88;2.20;;;;;;;2.93;81.30;101088.75;5089125;28;20390;-68
2023/01/25 08:54:27;;;;;;;2.07;1.87;;;;;;;2.79;81.31;101081.25;5096078;28;20121;-68
2023/01/25 08:56:56;;;;;;;3.40;3.10;;;;;;;2.86;81.29;101095.91;5095928;28;20123;-68
2023/01/25 08:59:27;;;;;;;2.22;2.05;;;;;;;2.92;81.27;101091.22;5095759;28;20050;-68
2023/01/25 09:01:58;;;;;;;3.60;3.30;;;;;;;2.88;81.73;101095.19;5096013;28;20432;-68
2023/01/25 09:04:27;;;;;;;9.40;3.90;;;;;;;2.86;81.83;101088.34;5095647;28;20055;-68
2023/01/25 09:06:56;;;;;;;4.72;4.30;;;;;;;2.91;81.00;101089.47;5096041;28;20375;-68
2023/01/25 09:09:25;;;;;;;3.65;3.33;;;;;;;2.75;81.37;101091.97;5095772;28;20040;-68
2023/01/25 09:11:53;;;;;;;1.70;1.60;;;;;;;2.64;81.15;101089.75;5095615;28;20032;-67
2023/01/25 09:14:22;;;;;;;3.13;2.72;;;;;;;2.50;80.78;101089.78;5095942;28;20485;-67
2023/01/25 09:16:51;;;;;;;5.70;2.27;;;;;;;2.49;81.80;101072.97;5095672;28;20040;-68
2023/01/25 09:19:21;;;;;;;2.85;2.65;;;;;;;2.29;80.58;101081.94;5094384;28;20040;-68
2023/01/25 09:21:50;;;;;;;0.73;0.70;;;;;;;2.15;81.73;101075.28;5095503;28;20150;-68
2023/01/25 09:24:19;;;;;;;2.03;1.83;;;;;;;2.04;81.13;101082.25;5095295;28;20115;-68
2023/01/25 09:26:48;;;;;;;2.07;1.90;;;;;;;1.87;81.73;101087.13;5095262;28;20056;-67
2023/01/25 09:29:27;;;;;;;1.37;1.30;;;;;;;1.75;81.72;101081.41;5095229;28;20123;-67
2023/01/25 09:31:56;;;;;;;4.88;4.43;;;;;;;1.52;82.04;101087.63;5095017;28;20122;-67
2023/01/25 09:34:32;;;;;;;4.03;2.28;;;;;;;1.39;82.41;101079.31;5095048;28;20056;-67
2023/01/25 09:37:01;;;;;;;2.03;1.88;;;;;;;1.22;82.74;101076.66;5094969;28;20052;-67
2023/01/25 09:39:30;;;;;;;0.88;0.88;;;;;;;1.22;82.36;101079.16;5094994;28;20040;-67
2023/01/25 09:42:34;;;;;;;1.73;1.63;;;;;;;1.06;82.88;101076.53;5094855;28;20051;-67
2023/01/25 09:45:22;;;;;;;1.77;1.67;;;;;;;1.33;84.12;101080.69;5094662;28;20771;-68
2023/01/25 09:47:57;;;;;;;1.17;1.08;;;;;;;1.58;84.12;101088.00;5095087;28;20501;-68
2023/01/25 09:50:38;;;;;;;2.92;1.65;;;;;;;1.68;84.05;101069.28;5094142;28;20141;-68
2023/01/25 09:53:24;;;;;;;4.20;2.85;;;;;;;1.70;84.23;101067.69;5094712;28;20512;-68
2023/01/25 09:55:58;;;;;;;5.03;3.95;;;;;;;1.63;83.96;101063.94;5094858;28;20048;-68
2023/01/25 09:58:34;;;;;;;1.50;1.40;;;;;;;1.50;84.35;101068.19;5094501;28;20075;-68
2023/01/25 10:01:17;;;;;;;0.95;0.95;;;;;;;1.34;84.46;101067.31;5060626;28;20059;-68
2023/01/25 10:03:58;;;;;;;2.75;2.55;;;;;;;1.28;84.55;101056.91;5094608;28;20040;-67
2023/01/25 10:06:44;;;;;;;3.33;2.88;;;;;;;1.40;84.50;101060.91;5095061;28;20382;-67
2023/01/25 10:09:34;;;;;;;0.63;0.63;;;;;;;1.50;85.16;101050.59;5094337;28;20052;-67
2023/01/25 10:12:14;;;;;;;1.50;1.40;;;;;;;1.60;84.89;101050.34;5093080;28;20440;-68
2023/01/25 10:14:43;;;;;;;2.67;2.17;;;;;;;1.55;84.52;101045.06;5093733;28;20089;-67
2023/01/25 10:17:27;;;;;;;2.08;1.95;;;;;;;1.42;84.61;101039.25;5094010;28;20115;-67
2023/01/25 10:20:14;;;;;;;1.42;1.33;;;;;;;1.51;85.48;101039.78;5094090;28;20568;-67
2023/01/25 10:22:51;;;;;;;3.08;2.45;;;;;;;1.59;85.50;101038.53;5094740;28;20067;-67
2023/01/25 10:25:28;;;;;;;4.43;2.40;;;;;;;1.69;85.77;101035.75;5093892;28;20412;-67
2023/01/25 10:28:09;;;;;;;2.47;2.20;;;;;;;1.52;85.50;101031.41;5094155;28;20485;-68
2023/01/25 10:30:46;;;;;;;1.52;1.42;;;;;;;1.62;85.66;101038.72;5093877;28;20074;-67
2023/01/25 10:33:20;;;;;;;1.13;1.13;;;;;;;1.52;85.90;101028.91;5094252;28;20125;-67
2023/01/25 10:35:50;;;;;;;3.88;3.00;;;;;;;1.56;86.40;101028.31;5092812;28;20127;-68
2023/01/25 10:38:26;;;;;;;2.53;2.17;;;;;;;1.58;86.24;101021.72;5086861;28;20062;-68
2023/01/25 10:41:02;;;;;;;3.40;3.05;;;;;;;1.64;85.84;101022.06;5093780;28;20524;-67
2023/01/25 10:43:31;;;;;;;3.90;3.10;;;;;;;1.65;86.45;101011.22;5093852;28;20481;-68
2023/01/25 10:46:00;;;;;;;3.05;2.85;;;;;;;1.55;85.85;101001.41;5093673;28;20072;-68
2023/01/25 10:48:34;;;;;;;5.47;4.97;;;;;;;1.43;86.25;100995.69;5083639;28;20035;-68
2023/01/25 10:51:03;;;;;;;1.08;1.05;;;;;;;1.43;86.24;100990.66;5087683;28;20085;-68
2023/01/25 10:53:35;;;;;;;5.30;4.17;;;;;;;1.21;86.73;100959.28;5092979;28;20159;-67
2023/01/25 10:56:24;;;;;;;24.60;3.50;;;;;;;1.38;87.04;100992.06;5091686;28;20040;-67
2023/01/25 10:59:05;;;;;;;3.38;3.17;;;;;;;1.35;86.74;100976.00;5091763;28;20044;-68
2023/01/25 11:01:36;;;;;;;1.52;1.40;;;;;;;1.40;87.41;100986.31;5087944;28;20063;-69
2023/01/25 11:04:23;;;;;;;7.30;4.72;;;;;;;1.45;87.29;100974.00;5090561;28;20036;-67
2023/01/25 11:06:52;;;;;;;2.45;2.25;;;;;;;1.45;87.62;100974.00;5088809;28;20075;-68
2023/01/25 11:09:36;;;;;;;1.13;1.05;;;;;;;1.41;87.23;100965.44;5091456;28;20048;-68
2023/01/25 11:12:18;;;;;;;5.68;4.50;;;;;;;1.42;87.81;100952.06;5086550;28;20117;-67
2023/01/25 11:14:49;;;;;;;2.53;2.33;;;;;;;1.43;88.46;100951.31;5082863;28;20130;-68
2023/01/25 11:17:25;;;;;;;3.03;2.83;;;;;;;1.45;88.75;100939.66;5092972;28;20490;-68
2023/01/25 11:20:20;;;;;;;6.65;4.18;;;;;;;1.48;88.98;100936.47;5091199;28;20097;-68
2023/01/25 11:22:51;;;;;;;2.92;2.20;;;;;;;1.51;88.40;100935.00;5086757;28;20478;-68
2023/01/25 11:25:30;;;;;;;4.50;3.47;;;;;;;1.52;88.57;100928.28;5088331;28;20051;-69
2023/01/25 11:28:18;;;;;;;5.93;3.70;;;;;;;1.49;89.12;100920.59;5090554;28;20048;-68
2023/01/25 11:30:48;;;;;;;4.13;3.72;;;;;;;1.50;88.63;100923.19;5091869;28;20030;-70
2023/01/25 11:33:19;;;;;;;1.92;1.83;;;;;;;1.53;89.48;100912.44;5087498;28;20048;-69
2023/01/25 11:36:05;;;;;;;1.90;1.55;;;;;;;1.54;89.34;100919.16;5090583;28;20028;-67
2023/01/25 11:38:34;;;;;;;4.30;2.15;;;;;;;1.49;89.37;100915.56;5090034;28;20119;-67
2023/01/25 11:41:13;;;;;;;1.23;1.13;;;;;;;1.51;89.61;100908.97;5092126;28;20068;-68
2023/01/25 11:43:55;;;;;;;1.48;1.38;;;;;;;1.48;89.70;100899.59;5083787;28;20281;-67
2023/01/25 11:46:36;;;;;;;4.07;3.72;;;;;;;1.46;89.96;100885.22;5091103;28;20041;-69
2023/01/25 11:49:18;;;;;;;3.10;2.78;;;;;;;1.43;89.04;100883.38;5080235;28;20040;-68
2023/01/25 11:51:50;;;;;;;;;;;;;;;1.49;89.68;100883.72;5093389;28;20044;-68
2023/01/25 11:54:42;;;;;;;0.93;0.93;;;;;;;1.49;89.50;100885.38;5083770;28;20010;-69
2023/01/25 11:57:29;;;;;;;3.88;3.47;;;;;;;1.53;89.47;100882.25;5090851;28;20068;-70
2023/01/25 12:00:14;;;;;;;2.05;1.85;;;;;;;1.52;89.73;100885.53;5091634;28;20070;-68
2023/01/25 12:03:11;;;;;;;1.75;1.65;;;;;;;1.53;89.86;100872.19;5091473;28;20040;-68
2023/01/25 12:05:58;;;;;;;1.23;1.20;;;;;;;1.52;90.12;100873.81;5083276;28;20044;-68
2023/01/25 12:08:50;;;;;;;4.05;3.75;;;;;;;1.52;90.16;100862.88;5089865;28;20059;-68